Time;durP1;ratioP1;P1;durP2;ratioP2;P2;SDS_P1;SDS_P2;PMS_P1;PMS_P2;Temp;Humidity;BMP_temperature;BMP_pressure;BME280_temperature;BME280_humidity;BME280_pressure;Samples;Min_cycle;Max_cycle;Signal;HPM_P1;HPM_P2
2020/12/06 00:01:37;;;;;;;10.15;4.95;;;;;;;8.05;60.73;102788.95;1698170;82;21194;-47
2020/12/06 00:04:07;;;;;;;12.73;5.22;;;;;;;8.06;60.62;102782.48;1660953;85;21171;-46
2020/12/06 00:06:35;;;;;;;12.80;4.92;;;;;;;8.05;60.42;102788.53;1668218;85;21760;-46
2020/12/06 00:09:07;;;;;;;8.63;4.97;;;;;;;8.05;60.48;102788.53;1656416;85;21183;-46
2020/12/06 00:11:36;;;;;;;13.58;4.65;;;;;;;8.05;60.44;102791.53;1660221;85;21190;-46
2020/12/06 00:14:04;;;;;;;8.78;4.87;;;;;;;8.08;60.35;102793.77;1670535;84;21155;-46
2020/12/06 00:16:33;;;;;;;7.00;4.33;;;;;;;8.10;60.40;102793.38;1662615;85;21186;-46
2020/12/06 00:19:01;;;;;;;8.18;4.30;;;;;;;8.12;60.35;102798.17;1698331;84;21174;-46
2020/12/06 00:21:30;;;;;;;12.37;6.53;;;;;;;8.15;60.58;102797.36;1670293;84;21339;-46
2020/12/06 00:23:58;;;;;;;11.65;4.97;;;;;;;8.15;60.34;102793.06;1650523;86;21182;-46
2020/12/06 00:26:27;;;;;;;11.48;5.35;;;;;;;8.19;60.07;102794.88;1687771;84;21682;-46
2020/12/06 00:28:55;;;;;;;12.00;4.70;;;;;;;8.21;60.13;102789.30;1651249;86;21604;-46
2020/12/06 00:31:23;;;;;;;14.30;4.10;;;;;;;8.22;59.95;102792.32;1684463;84;21702;-46
2020/12/06 00:33:51;;;;;;;6.62;4.10;;;;;;;8.21;59.88;102790.59;1659620;86;21243;-46
2020/12/06 00:36:19;;;;;;;9.65;3.80;;;;;;;8.22;59.69;102793.62;1681504;84;21319;-46
2020/12/06 00:38:48;;;;;;;8.15;3.90;;;;;;;8.24;59.62;102794.52;1665423;85;21310;-46
2020/12/06 00:41:16;;;;;;;8.85;4.22;;;;;;;8.23;59.75;102791.49;1687340;84;21156;-46
2020/12/06 00:43:44;;;;;;;11.68;3.52;;;;;;;8.22;59.69;102797.51;1696614;84;21150;-46
2020/12/06 00:46:15;;;;;;;5.62;3.60;;;;;;;8.22;59.51;102794.91;1678323;84;21302;-46
2020/12/06 00:48:44;;;;;;;9.08;3.65;;;;;;;8.23;59.58;102797.09;1686763;84;21172;-46
2020/12/06 00:51:16;;;;;;;7.03;3.45;;;;;;;8.23;59.36;102791.49;1680014;84;21193;-46
2020/12/06 00:53:45;;;;;;;11.65;4.40;;;;;;;8.24;59.21;102793.23;1692854;84;21199;-46
2020/12/06 00:56:20;;;;;;;9.55;3.40;;;;;;;8.22;58.83;102785.84;1674190;84;21197;-47
2020/12/06 00:58:49;;;;;;;6.58;3.27;;;;;;;8.19;58.66;102787.09;1665576;85;21572;-47
2020/12/06 01:01:18;;;;;;;7.80;3.62;;;;;;;8.17;58.47;102788.78;1690628;84;21310;-46
2020/12/06 01:03:47;;;;;;;9.28;3.05;;;;;;;8.14;58.50;102780.92;1693908;84;21183;-46
2020/12/06 01:06:18;;;;;;;8.78;3.27;;;;;;;8.13;58.38;102783.08;1684199;84;21583;-46
2020/12/06 01:08:46;;;;;;;19.17;5.33;;;;;;;8.13;58.28;102788.27;1694311;84;21167;-47
2020/12/06 01:11:15;;;;;;;7.10;3.50;;;;;;;8.13;58.29;102785.67;1685585;84;21348;-47
2020/12/06 01:13:44;;;;;;;7.90;3.45;;;;;;;8.13;58.13;102786.97;1696441;84;21160;-47
2020/12/06 01:16:13;;;;;;;5.12;3.12;;;;;;;8.12;57.94;102786.91;1687321;84;21164;-47
2020/12/06 01:18:42;;;;;;;6.85;3.33;;;;;;;8.10;57.82;102789.89;1695319;84;21203;-47
2020/12/06 01:21:11;;;;;;;7.12;3.42;;;;;;;8.06;57.42;102785.08;1685797;84;21169;-47
2020/12/06 01:23:39;;;;;;;7.53;3.40;;;;;;;8.02;57.20;102785.86;1711138;83;21152;-46
2020/12/06 01:26:12;;;;;;;7.35;3.30;;;;;;;8.00;57.13;102784.95;1670155;85;21220;-47
2020/12/06 01:28:41;;;;;;;5.92;2.83;;;;;;;7.96;57.17;102783.14;1602781;89;21672;-47
2020/12/06 01:31:09;;;;;;;9.28;3.67;;;;;;;7.94;57.17;102782.23;1566389;91;21357;-47
2020/12/06 01:33:37;;;;;;;6.55;3.55;;;;;;;7.90;57.11;102784.72;1587682;90;21224;-47
2020/12/06 01:36:06;;;;;;;7.05;3.65;;;;;;;7.88;57.28;102786.00;1600205;89;21816;-47
2020/12/06 01:38:36;;;;;;;9.98;3.65;;;;;;;7.87;57.25;102789.86;1571689;91;21832;-47
2020/12/06 01:41:04;;;;;;;10.48;4.62;;;;;;;7.83;57.27;102778.53;1602969;89;21658;-47
2020/12/06 01:43:33;;;;;;;9.43;3.98;;;;;;;7.83;57.45;102778.53;1572840;91;21344;-47
2020/12/06 01:46:01;;;;;;;10.95;5.12;;;;;;;7.83;57.55;102787.59;1601654;89;21376;-47
2020/12/06 01:48:29;;;;;;;9.03;4.12;;;;;;;7.83;57.68;102782.41;1570306;91;21217;-47
2020/12/06 01:50:58;;;;;;;6.15;3.08;;;;;;;7.83;57.73;102775.94;1591803;89;21351;-47
2020/12/06 01:53:27;;;;;;;13.68;4.12;;;;;;;7.83;57.88;102783.71;1567643;91;21190;-47
2020/12/06 01:55:55;;;;;;;11.80;3.95;;;;;;;7.82;57.89;102785.87;1602750;89;21274;-46
2020/12/06 01:58:25;;;;;;;7.60;3.85;;;;;;;7.82;58.00;102783.69;1569350;91;21218;-46
2020/12/06 02:00:54;;;;;;;12.63;5.08;;;;;;;7.82;58.15;102781.98;1593450;89;21198;-46
2020/12/06 02:03:22;;;;;;;10.10;4.00;;;;;;;7.83;58.25;102781.56;1570879;91;21427;-47
2020/12/06 02:05:51;;;;;;;9.65;4.05;;;;;;;7.83;57.91;102788.89;1589170;90;21747;-46
2020/12/06 02:08:19;;;;;;;10.15;3.45;;;;;;;7.81;57.97;102791.88;1599890;89;21360;-46
2020/12/06 02:10:49;;;;;;;8.90;3.90;;;;;;;7.80;58.07;102779.78;1572017;91;21280;-46
2020/12/06 02:13:23;;;;;;;7.92;3.80;;;;;;;7.79;58.26;102778.45;1602840;89;21377;-46
2020/12/06 02:15:51;;;;;;;9.28;4.30;;;;;;;7.80;57.90;102786.25;1572748;89;21221;-46
2020/12/06 02:18:20;;;;;;;11.63;3.70;;;;;;;7.80;57.96;102791.44;1602994;89;21778;-46
2020/12/06 02:20:48;;;;;;;12.28;3.62;;;;;;;7.79;57.58;102787.08;1571191;91;21250;-46
2020/12/06 02:23:17;;;;;;;11.53;3.30;;;;;;;7.76;57.39;102785.73;1607886;87;21377;-46
2020/12/06 02:25:46;;;;;;;9.15;3.45;;;;;;;7.74;57.57;102780.94;1725653;80;21144;-46
2020/12/06 02:28:14;;;;;;;7.78;3.22;;;;;;;7.75;57.86;102779.23;1763327;81;21144;-46
2020/12/06 02:30:42;;;;;;;7.55;3.60;;;;;;;7.75;57.88;102792.19;1762189;81;21293;-46
2020/12/06 02:33:10;;;;;;;9.53;4.10;;;;;;;7.73;57.99;102784.36;1761183;81;21608;-46
2020/12/06 02:35:39;;;;;;;15.88;4.00;;;;;;;7.74;57.83;102788.72;1761041;81;21576;-46
2020/12/06 02:38:07;;;;;;;8.35;4.12;;;;;;;7.74;57.90;102784.83;1761739;81;21291;-46
2020/12/06 02:40:35;;;;;;;9.63;4.22;;;;;;;7.71;57.94;102782.16;1763583;81;21148;-46
2020/12/06 02:43:04;;;;;;;13.03;4.10;;;;;;;7.70;57.96;102777.83;1762320;81;21138;-46
2020/12/06 02:45:32;;;;;;;7.20;3.50;;;;;;;7.69;58.10;102783.84;1766080;81;21152;-46
2020/12/06 02:48:00;;;;;;;10.08;3.72;;;;;;;7.68;57.90;102780.81;1766738;81;21132;-46
2020/12/06 02:50:30;;;;;;;8.75;4.20;;;;;;;7.67;58.13;102780.34;1766656;81;21116;-46
2020/12/06 02:52:58;;;;;;;8.08;3.55;;;;;;;7.70;58.33;102778.24;1764531;81;21156;-46
2020/12/06 02:55:28;;;;;;;10.95;4.17;;;;;;;7.72;58.16;102782.63;1763675;81;21136;-46
2020/12/06 02:57:56;;;;;;;11.18;3.47;;;;;;;7.72;58.07;102781.73;1763504;81;21274;-46
2020/12/06 03:00:24;;;;;;;10.93;3.58;;;;;;;7.69;58.19;102783.84;1759031;81;21128;-46
2020/12/06 03:02:52;;;;;;;6.65;3.15;;;;;;;7.67;58.14;102779.05;1766755;81;21155;-46
2020/12/06 03:05:21;;;;;;;11.48;4.58;;;;;;;7.65;58.25;102766.47;1764823;81;21112;-46
2020/12/06 03:07:50;;;;;;;12.58;4.08;;;;;;;7.65;58.40;102772.07;1763717;81;21108;-46
2020/12/06 03:10:18;;;;;;;9.38;4.05;;;;;;;7.64;58.45;102773.81;1765892;81;21140;-46
2020/12/06 03:12:46;;;;;;;6.83;3.10;;;;;;;7.66;58.31;102777.31;1763332;81;21262;-46
2020/12/06 03:15:15;;;;;;;9.40;4.50;;;;;;;7.65;58.14;102772.07;1763725;80;21278;-46
2020/12/06 03:17:43;;;;;;;8.93;4.03;;;;;;;7.63;58.35;102774.63;1763176;81;21136;-46
2020/12/06 03:20:11;;;;;;;8.88;4.10;;;;;;;7.63;58.45;102779.81;1763720;81;21279;-46
2020/12/06 03:22:39;;;;;;;8.85;4.00;;;;;;;7.63;58.65;102775.93;1764705;80;21148;-46
2020/12/06 03:25:08;;;;;;;7.90;3.85;;;;;;;7.63;58.59;102772.05;1768156;80;21156;-46
2020/12/06 03:27:37;;;;;;;11.18;4.45;;;;;;;7.61;58.61;102770.25;1765474;80;21152;-46
2020/12/06 03:30:05;;;;;;;11.40;4.90;;;;;;;7.60;58.76;102786.24;1762686;80;21172;-46
2020/12/06 03:32:33;;;;;;;8.70;3.72;;;;;;;7.61;58.89;102785.38;1766333;80;21310;-46
2020/12/06 03:35:03;;;;;;;11.83;4.70;;;;;;;7.65;58.63;102787.61;1766808;80;21786;-46
2020/12/06 03:37:31;;;;;;;10.85;5.25;;;;;;;7.67;58.98;102782.93;1766602;80;21286;-47
2020/12/06 03:39:59;;;;;;;12.40;4.33;;;;;;;7.68;59.21;102792.47;1762968;80;21559;-46
2020/12/06 03:42:27;;;;;;;11.28;4.35;;;;;;;7.67;58.99;102789.41;1769742;80;21147;-46
2020/12/06 03:44:55;;;;;;;12.82;4.22;;;;;;;7.66;59.20;102791.97;1765604;80;21301;-46
2020/12/06 03:47:23;;;;;;;8.20;3.72;;;;;;;7.65;59.18;102791.50;1764778;80;21135;-46
2020/12/06 03:49:51;;;;;;;9.70;4.08;;;;;;;7.67;59.08;102786.81;1763627;80;21144;-46
2020/12/06 03:52:20;;;;;;;7.80;4.25;;;;;;;7.68;59.11;102790.29;1763751;80;21160;-46
2020/12/06 03:54:49;;;;;;;8.35;3.87;;;;;;;7.68;59.22;102787.29;1760048;80;21147;-46
2020/12/06 03:57:17;;;;;;;11.10;4.12;;;;;;;7.66;59.30;102785.08;1766535;80;21136;-46
2020/12/06 03:59:45;;;;;;;10.95;4.33;;;;;;;7.66;59.19;102790.27;1776610;80;21587;-46
2020/12/06 04:02:13;;;;;;;9.03;3.72;;;;;;;7.63;59.42;102790.18;1767888;80;21147;-46
2020/12/06 04:04:42;;;;;;;8.98;3.62;;;;;;;7.63;59.52;102791.48;1763614;80;21148;-46
2020/12/06 04:07:10;;;;;;;7.42;3.50;;;;;;;7.62;59.42;102793.63;1763650;80;21118;-46
2020/12/06 04:09:40;;;;;;;6.55;3.85;;;;;;;7.63;59.31;102791.89;1771955;80;21589;-46
2020/12/06 04:12:09;;;;;;;15.03;3.85;;;;;;;7.61;59.10;102797.05;1758653;80;21277;-46
2020/12/06 04:14:37;;;;;;;8.43;3.87;;;;;;;7.60;59.07;102789.25;1766310;80;21393;-47
2020/12/06 04:17:06;;;;;;;15.43;4.03;;;;;;;7.60;59.33;102796.61;1768674;80;21140;-46
2020/12/06 04:19:34;;;;;;;11.45;4.03;;;;;;;7.61;59.48;102797.45;1769777;80;21294;-46
2020/12/06 04:22:06;;;;;;;12.75;3.85;;;;;;;7.60;59.39;102792.72;1769051;80;21171;-46
2020/12/06 04:24:33;;;;;;;13.80;4.03;;;;;;;7.60;59.31;102791.42;1765857;81;21290;-46
2020/12/06 04:27:01;;;;;;;8.98;4.20;;;;;;;7.60;59.31;102790.13;1757076;81;21164;-46
2020/12/06 04:29:30;;;;;;;12.58;3.92;;;;;;;7.61;59.44;102797.05;1757166;81;21596;-46
2020/12/06 04:31:59;;;;;;;9.38;3.98;;;;;;;7.61;59.30;102793.57;1755478;81;21302;-46
2020/12/06 04:34:27;;;;;;;11.40;4.62;;;;;;;7.61;59.33;102791.86;1755456;81;21311;-46
2020/12/06 04:36:56;;;;;;;11.08;3.67;;;;;;;7.60;59.30;102794.42;1757718;81;21153;-46
2020/12/06 04:39:24;;;;;;;9.95;3.90;;;;;;;7.57;59.35;102797.81;1758787;81;21144;-46
2020/12/06 04:41:52;;;;;;;8.38;4.35;;;;;;;7.54;59.47;102789.99;1758675;81;21147;-46
2020/12/06 04:44:20;;;;;;;8.63;3.87;;;;;;;7.53;59.73;102793.41;1758820;81;21129;-46
2020/12/06 04:46:49;;;;;;;13.58;4.72;;;;;;;7.52;59.91;102796.86;1758551;81;21108;-46
2020/12/06 04:49:43;;;;;;;13.38;4.55;;;;;;;7.53;59.91;102795.11;1757508;81;21140;-46
2020/12/06 04:52:19;;;;;;;10.63;4.35;;;;;;;7.53;59.81;102789.94;1754718;81;21141;-46
2020/12/06 04:55:01;;;;;;;8.35;3.92;;;;;;;7.53;60.00;102792.11;1758276;81;21596;-46
2020/12/06 04:57:30;;;;;;;11.18;4.05;;;;;;;7.54;59.96;102795.17;1739454;81;21561;-46
2020/12/06 05:00:09;;;;;;;7.00;3.50;;;;;;;7.54;59.91;102791.70;1757066;81;22006;-46
2020/12/06 05:02:38;;;;;;;10.08;4.10;;;;;;;7.55;59.69;102799.50;1758604;81;21168;-46
2020/12/06 05:05:07;;;;;;;11.95;4.65;;;;;;;7.55;59.57;102807.68;1759748;81;21144;-46
2020/12/06 05:07:35;;;;;;;7.75;4.30;;;;;;;7.53;59.46;102807.66;1759423;81;21164;-46
2020/12/06 05:10:03;;;;;;;7.62;4.05;;;;;;;7.48;59.31;102807.10;1755370;81;21136;-46
2020/12/06 05:12:32;;;;;;;9.38;4.10;;;;;;;7.44;59.12;102806.13;1768543;81;21104;-46
2020/12/06 05:15:00;;;;;;;7.17;3.70;;;;;;;7.40;59.15;102819.84;1756636;81;21179;-46
2020/12/06 05:17:28;;;;;;;7.72;4.20;;;;;;;7.38;59.49;102820.23;1755495;81;21128;-46
2020/12/06 05:20:10;;;;;;;8.45;4.10;;;;;;;7.38;59.55;102816.34;1755577;81;21156;-46
2020/12/06 05:22:46;;;;;;;;;;;;;;;7.39;59.49;102820.70;1765310;80;21282;-46
2020/12/06 05:25:14;;;;;;;8.63;4.00;;;;;;;7.39;59.37;102828.47;1753958;81;20225;-46
2020/12/06 05:27:42;;;;;;;8.50;4.75;;;;;;;7.38;59.28;102823.70;1752009;81;21216;-46
2020/12/06 05:30:11;;;;;;;9.20;4.00;;;;;;;7.38;59.31;102826.70;1752876;81;21164;-46
2020/12/06 05:32:39;;;;;;;10.45;4.00;;;;;;;7.40;59.64;102826.33;1752147;81;21187;-46
2020/12/06 05:35:08;;;;;;;9.43;3.87;;;;;;;7.39;59.36;102828.47;1755050;81;21311;-46
2020/12/06 05:37:37;;;;;;;12.88;4.75;;;;;;;7.38;59.32;102835.77;1754451;81;21253;-46
2020/12/06 05:40:10;;;;;;;8.43;4.12;;;;;;;7.37;59.63;102830.16;1753062;81;21145;-46
2020/12/06 05:42:41;;;;;;;9.25;3.92;;;;;;;7.37;59.52;102831.45;1751207;81;21196;-46
2020/12/06 05:45:18;;;;;;;10.32;4.85;;;;;;;7.40;59.55;102835.39;1801390;78;28784;-46
2020/12/06 05:47:47;;;;;;;9.07;3.73;;;;;;;7.40;59.58;102831.09;1771855;80;21121;-46
2020/12/06 05:50:17;;;;;;;5.87;3.47;;;;;;;7.44;59.21;102829.44;1727497;83;21600;-46
2020/12/06 05:52:45;;;;;;;6.67;3.87;;;;;;;7.41;58.97;102824.20;1750499;81;21171;-46
2020/12/06 05:55:14;;;;;;;9.85;4.08;;;;;;;7.41;58.91;102833.27;1753005;81;22513;-46
2020/12/06 05:57:44;;;;;;;12.25;4.85;;;;;;;7.42;59.18;102828.98;1708473;83;21167;-46
2020/12/06 06:00:12;;;;;;;14.03;5.50;;;;;;;7.43;59.26;102838.06;1728432;83;21168;-46
2020/12/06 06:02:43;;;;;;;10.10;4.40;;;;;;;7.44;59.44;102837.22;1716372;82;21200;-46
2020/12/06 06:05:18;;;;;;;11.80;4.30;;;;;;;7.42;59.42;102842.78;1728558;83;21607;-46
2020/12/06 06:07:49;;;;;;;13.40;4.00;;;;;;;7.40;59.43;102843.16;1716518;83;21311;-46
2020/12/06 06:10:19;;;;;;;9.55;4.10;;;;;;;7.40;59.58;102844.45;1689969;81;21176;-46
2020/12/06 06:12:48;;;;;;;7.60;3.92;;;;;;;7.38;59.45;102844.84;1746640;81;21174;-46
2020/12/06 06:15:16;;;;;;;12.33;4.28;;;;;;;7.16;59.72;102844.73;1737515;81;21172;-47
2020/12/06 06:17:44;;;;;;;11.10;4.53;;;;;;;7.12;59.91;102848.50;1755118;81;21282;-46
2020/12/06 06:20:12;;;;;;;13.55;4.22;;;;;;;7.10;60.22;102843.30;1746026;81;21470;-46
2020/12/06 06:22:43;;;;;;;10.95;4.50;;;;;;;7.08;60.09;102844.08;1713172;83;21159;-46
2020/12/06 06:25:11;;;;;;;9.50;4.08;;;;;;;7.08;60.10;102846.67;1745594;81;21189;-46
2020/12/06 06:27:40;;;;;;;12.35;4.58;;;;;;;7.07;60.34;102850.08;1728068;81;21616;-46
2020/12/06 06:30:09;;;;;;;8.63;3.80;;;;;;;7.04;60.39;102851.31;1755829;81;21157;-46
2020/12/06 06:32:38;;;;;;;12.75;4.08;;;;;;;7.03;60.30;102843.08;1742069;81;21176;-46
2020/12/06 06:35:07;;;;;;;8.08;4.05;;;;;;;7.04;60.46;102839.66;1741865;81;21188;-46
2020/12/06 06:37:36;;;;;;;14.50;7.37;;;;;;;7.02;60.56;102846.52;1749911;81;21140;-46
2020/12/06 06:40:07;;;;;;;23.00;10.90;;;;;;;7.03;60.37;102840.48;1749908;81;21156;-46
2020/12/06 06:42:37;;;;;;;21.15;12.50;;;;;;;7.04;60.43;102850.02;1756327;81;21132;-46
2020/12/06 06:45:11;;;;;;;11.88;5.67;;;;;;;7.11;60.50;102859.70;1704154;83;21327;-46
2020/12/06 06:47:41;;;;;;;17.10;5.12;;;;;;;7.22;59.88;102848.77;1703449;84;21165;-46
2020/12/06 06:50:10;;;;;;;10.32;4.42;;;;;;;7.24;59.77;102851.39;1705212;83;21168;-46
2020/12/06 06:52:40;;;;;;;10.80;5.22;;;;;;;7.25;59.90;102854.02;1713995;83;21168;-46
2020/12/06 06:55:09;;;;;;;13.60;5.30;;;;;;;7.23;59.86;102856.13;1714795;83;21236;-46
2020/12/06 06:57:41;;;;;;;12.43;5.17;;;;;;;7.20;59.92;102855.62;1706662;83;21176;-46
2020/12/06 07:00:15;;;;;;;8.28;4.50;;;;;;;7.22;60.12;102856.55;1816237;79;22871;-46
2020/12/06 07:02:43;;;;;;;10.40;4.28;;;;;;;7.14;60.17;102858.48;1785910;80;21542;-46
2020/12/06 07:05:17;;;;;;;7.35;4.33;;;;;;;7.11;60.05;102858.41;1776587;80;21175;-46
2020/12/06 07:07:52;;;;;;;11.00;4.20;;;;;;;7.11;60.03;102851.95;1766344;80;21156;-46
2020/12/06 07:10:23;;;;;;;12.68;4.72;;;;;;;7.14;59.92;102853.30;1773039;80;21176;-46
2020/12/06 07:12:55;;;;;;;15.08;4.70;;;;;;;7.15;60.09;102846.86;1780223;80;21156;-46
2020/12/06 07:15:24;;;;;;;12.00;4.20;;;;;;;7.16;59.89;102852.51;1780436;80;21617;-46
2020/12/06 07:17:54;;;;;;;9.40;4.33;;;;;;;7.16;59.94;102850.33;1779077;80;21152;-46
2020/12/06 07:20:23;;;;;;;11.78;4.10;;;;;;;7.14;59.84;102858.06;1777272;80;21601;-46
2020/12/06 07:22:55;;;;;;;8.70;4.70;;;;;;;7.14;59.89;102857.18;1777816;80;21160;-46
2020/12/06 07:25:23;;;;;;;;;;;;;;;7.13;60.07;102858.03;1782840;80;21559;-46
2020/12/06 07:27:51;;;;;;;8.40;3.65;;;;;;;7.13;60.12;102861.92;1780163;80;20160;-46
2020/12/06 07:30:20;;;;;;;11.83;4.15;;;;;;;7.13;59.92;102868.39;1777750;80;21298;-46
2020/12/06 07:32:48;;;;;;;10.23;4.50;;;;;;;7.12;59.80;102856.27;1776762;80;21201;-46
2020/12/06 07:35:18;;;;;;;11.00;4.35;;;;;;;7.08;59.77;102863.09;1776859;80;21322;-46
2020/12/06 07:37:46;;;;;;;8.93;4.42;;;;;;;7.08;59.76;102866.09;1776828;80;21637;-47
2020/12/06 07:40:14;;;;;;;6.15;3.70;;;;;;;7.07;59.67;102866.50;1776970;80;21163;-46
2020/12/06 07:42:42;;;;;;;11.95;5.03;;;;;;;7.06;59.62;102866.47;1777822;80;21148;-46
2020/12/06 07:45:11;;;;;;;11.45;5.28;;;;;;;7.07;59.91;102868.20;1780102;80;21329;-46
2020/12/06 07:47:39;;;;;;;12.40;5.15;;;;;;;7.07;60.15;102878.55;1780028;80;21183;-47
2020/12/06 07:50:07;;;;;;;12.82;7.45;;;;;;;7.09;60.18;102875.62;1778586;80;21147;-46
2020/12/06 07:52:37;;;;;;;13.90;5.95;;;;;;;7.11;60.27;102875.24;1777462;80;21148;-46
2020/12/06 07:55:09;;;;;;;11.50;4.80;;;;;;;7.12;60.46;102884.74;1776170;80;21180;-46
2020/12/06 07:57:52;;;;;;;18.32;5.20;;;;;;;7.12;60.27;102887.33;1681412;85;21227;-46
2020/12/06 08:00:22;;;;;;;12.78;5.83;;;;;;;7.14;60.11;102888.25;1687798;85;21196;-46
2020/12/06 08:02:58;;;;;;;13.03;5.05;;;;;;;7.14;59.91;102893.42;1660138;86;21587;-46
2020/12/06 08:05:37;;;;;;;6.58;3.98;;;;;;;7.18;60.04;102883.61;1771710;79;22961;-46
2020/12/06 08:08:10;;;;;;;12.47;5.03;;;;;;;7.13;59.82;102891.69;1741927;82;21129;-46
2020/12/06 08:10:39;;;;;;;12.65;4.37;;;;;;;7.09;59.98;102885.98;1740910;82;21188;-46
2020/12/06 08:13:11;;;;;;;9.60;5.10;;;;;;;7.07;60.03;102888.91;1740298;82;21144;-46
2020/12/06 08:15:39;;;;;;;9.68;5.30;;;;;;;7.08;59.92;102894.16;1741833;82;21141;-46
2020/12/06 08:18:14;;;;;;;9.40;4.67;;;;;;;7.09;59.76;102896.33;1738082;82;21274;-46
2020/12/06 08:20:55;;;;;;;11.15;5.03;;;;;;;7.09;59.54;102895.03;1737063;82;21184;-46
2020/12/06 08:23:36;;;;;;;9.18;4.53;;;;;;;7.07;59.46;102891.50;1734577;82;21192;-46
2020/12/06 08:26:05;;;;;;;9.73;4.80;;;;;;;7.07;59.47;102890.20;1691546;84;21175;-46
2020/12/06 08:28:33;;;;;;;19.57;6.95;;;;;;;7.03;59.65;102887.08;1693540;84;21755;-47
2020/12/06 08:31:10;;;;;;;11.50;4.60;;;;;;;7.03;59.93;102880.61;1688231;84;21166;-46
2020/12/06 08:33:44;;;;;;;10.65;4.92;;;;;;;7.09;59.85;102870.00;1775905;79;23145;-46
2020/12/06 08:36:23;;;;;;;10.70;4.50;;;;;;;7.09;59.89;102880.80;1737848;82;21290;-46
2020/12/06 08:38:51;;;;;;;9.90;4.72;;;;;;;7.10;59.45;102880.83;1737041;82;21121;-46
2020/12/06 08:41:25;;;;;;;11.93;4.50;;;;;;;7.08;59.24;102878.63;1736960;82;21458;-46
2020/12/06 08:44:03;;;;;;;8.80;4.35;;;;;;;7.05;58.91;102864.70;1736433;82;21164;-46
2020/12/06 08:46:31;;;;;;;10.53;4.80;;;;;;;7.03;59.02;102862.08;1659464;85;21337;-46
2020/12/06 08:49:01;;;;;;;14.78;5.15;;;;;;;7.03;58.98;102860.78;1661363;86;21220;-46
2020/12/06 08:51:38;;;;;;;13.08;4.87;;;;;;;7.04;59.35;102863.84;1661010;86;21215;-46
2020/12/06 08:54:08;;;;;;;8.38;4.37;;;;;;;7.05;59.49;102856.93;1661231;86;21324;-46
2020/12/06 08:56:39;;;;;;;13.05;4.80;;;;;;;7.04;59.33;102859.96;1659678;86;21191;-46
2020/12/06 08:59:12;;;;;;;14.18;5.53;;;;;;;7.02;59.30;102855.16;1659359;86;21215;-46
2020/12/06 09:01:54;;;;;;;12.73;4.87;;;;;;;7.00;59.44;102858.55;1657951;86;21179;-46
2020/12/06 09:04:23;;;;;;;11.10;4.72;;;;;;;7.00;59.34;102850.37;1656274;86;21284;-46
2020/12/06 09:06:53;;;;;;;11.65;4.90;;;;;;;7.02;59.38;102846.52;1658023;86;21158;-46
2020/12/06 09:09:21;;;;;;;10.93;4.83;;;;;;;7.05;59.47;102845.28;1655902;86;21196;-46
2020/12/06 09:11:53;;;;;;;13.50;4.62;;;;;;;7.07;59.33;102841.02;1658546;86;21336;-46
2020/12/06 09:14:22;;;;;;;14.75;5.83;;;;;;;7.07;59.01;102850.08;1658166;86;21199;-46
2020/12/06 09:16:50;;;;;;;11.25;5.45;;;;;;;7.09;59.19;102852.33;1657996;86;21243;-46
2020/12/06 09:19:18;;;;;;;11.68;5.03;;;;;;;7.08;59.07;102846.67;1658644;86;21135;-46
2020/12/06 09:21:48;;;;;;;14.20;4.60;;;;;;;7.08;58.97;102842.79;1658776;86;21163;-46
2020/12/06 09:24:16;;;;;;;10.18;5.10;;;;;;;7.07;58.95;102839.73;1679013;85;21372;-47
2020/12/06 09:26:44;;;;;;;10.65;5.50;;;;;;;7.06;59.12;102839.28;1706839;83;21325;-46
2020/12/06 09:29:13;;;;;;;10.25;4.78;;;;;;;7.05;59.21;102841.40;1704504;83;21211;-46
2020/12/06 09:31:41;;;;;;;9.80;5.50;;;;;;;7.07;59.34;102831.96;1700178;84;21164;-46
2020/12/06 09:34:09;;;;;;;11.12;4.60;;;;;;;7.10;59.35;102830.34;1736042;82;21319;-46
2020/12/06 09:36:44;;;;;;;9.50;5.20;;;;;;;7.12;59.05;102830.37;1734891;82;21125;-46
2020/12/06 09:39:12;;;;;;;17.52;5.55;;;;;;;7.11;59.06;102831.23;1733650;82;21149;-46
2020/12/06 09:41:45;;;;;;;12.93;5.53;;;;;;;7.09;59.05;102826.44;1732913;82;21570;-46
2020/12/06 09:44:13;;;;;;;15.90;7.10;;;;;;;7.06;59.18;102820.76;1735916;81;21570;-46
2020/12/06 09:46:43;;;;;;;18.40;7.10;;;;;;;7.05;59.42;102814.22;1733115;82;21172;-46
2020/12/06 09:49:12;;;;;;;16.42;7.03;;;;;;;7.04;59.52;102813.78;1733099;82;21557;-46
2020/12/06 09:51:43;;;;;;;16.48;7.17;;;;;;;7.05;59.47;102813.81;1733383;82;21153;-46
2020/12/06 09:54:11;;;;;;;13.70;6.17;;;;;;;6.88;59.84;102815.12;1731272;82;21337;-46
2020/12/06 09:56:41;;;;;;;21.00;8.75;;;;;;;6.82;60.13;102809.75;1733239;81;21125;-46
2020/12/06 09:59:10;;;;;;;16.73;9.18;;;;;;;6.80;60.24;102811.86;1732480;82;21136;-46
2020/12/06 10:01:38;;;;;;;14.40;8.40;;;;;;;6.78;60.41;102800.59;1739020;82;21254;-46
2020/12/06 10:04:07;;;;;;;15.05;5.80;;;;;;;6.78;60.54;102799.30;1725614;82;21161;-46
2020/12/06 10:06:35;;;;;;;11.57;5.65;;;;;;;6.79;60.47;102802.33;1732515;82;21149;-46
2020/12/06 10:09:04;;;;;;;9.30;5.05;;;;;;;6.79;60.51;102797.16;1729379;82;21173;-46
2020/12/06 10:11:32;;;;;;;10.50;4.60;;;;;;;6.77;60.26;102800.13;1735662;82;21147;-46
2020/12/06 10:14:01;;;;;;;9.45;4.65;;;;;;;6.75;60.24;102796.63;1734859;82;21176;-46
2020/12/06 10:16:29;;;;;;;10.00;5.10;;;;;;;6.73;60.14;102795.71;1732727;82;21136;-46
2020/12/06 10:18:57;;;;;;;12.78;5.03;;;;;;;6.71;60.52;102798.27;1734182;82;21592;-48
2020/12/06 10:21:25;;;;;;;13.10;4.80;;;;;;;6.70;60.82;102792.62;1733507;82;21598;-46
2020/12/06 10:23:54;;;;;;;10.72;5.47;;;;;;;6.70;60.64;102786.15;1729943;82;21156;-46
2020/12/06 10:26:24;;;;;;;11.10;5.10;;;;;;;6.72;60.42;102788.80;1729916;82;21283;-46
2020/12/06 10:28:52;;;;;;;12.35;4.20;;;;;;;6.71;60.30;102784.45;1731553;82;21129;-46
2020/12/06 10:31:20;;;;;;;13.00;4.25;;;;;;;6.72;60.42;102786.21;1734307;82;21299;-46
2020/12/06 10:33:49;;;;;;;12.28;4.08;;;;;;;6.73;60.33;102790.53;1737983;81;21673;-46
2020/12/06 10:36:17;;;;;;;14.25;4.65;;;;;;;6.71;60.17;102785.73;1738831;82;21125;-46
2020/12/06 10:38:45;;;;;;;14.90;4.22;;;;;;;6.68;60.36;102779.20;1738342;82;21148;-46
2020/12/06 10:41:13;;;;;;;8.68;4.42;;;;;;;6.70;60.47;102778.83;1737103;82;21180;-46
2020/12/06 10:43:42;;;;;;;10.15;3.92;;;;;;;6.71;60.33;102774.09;1735643;82;21156;-46
2020/12/06 10:46:11;;;;;;;11.12;4.50;;;;;;;6.72;60.17;102775.86;1735690;82;21176;-46
2020/12/06 10:48:40;;;;;;;21.02;5.00;;;;;;;6.73;60.19;102777.60;1745725;82;21185;-46
2020/12/06 10:51:08;;;;;;;10.80;4.95;;;;;;;6.73;60.25;102788.83;1737098;82;21156;-46
2020/12/06 10:53:36;;;;;;;10.55;4.87;;;;;;;6.73;59.97;102782.77;1737348;82;21168;-46
2020/12/06 10:56:04;;;;;;;6.92;3.92;;;;;;;6.73;59.72;102786.66;1736389;82;21160;-46
2020/12/06 10:58:32;;;;;;;6.67;3.50;;;;;;;6.71;59.68;102779.27;1735618;82;21291;-46
2020/12/06 11:01:00;;;;;;;9.90;4.35;;;;;;;6.69;59.35;102782.23;1745165;82;21283;-46
2020/12/06 11:03:29;;;;;;;10.88;4.12;;;;;;;6.69;59.59;102781.83;1738714;82;21120;-46
2020/12/06 11:05:57;;;;;;;13.43;4.85;;;;;;;6.71;59.53;102783.16;1742832;82;21156;-47
2020/12/06 11:08:26;;;;;;;8.30;4.83;;;;;;;6.71;59.79;102783.16;1739527;82;21148;-46
2020/12/06 11:10:54;;;;;;;7.65;3.92;;;;;;;6.68;59.58;102782.65;1738862;82;21125;-46
2020/12/06 11:13:22;;;;;;;14.23;5.15;;;;;;;6.67;59.54;102786.49;1748433;82;21141;-46
2020/12/06 11:15:50;;;;;;;11.45;4.70;;;;;;;6.65;59.64;102789.46;1735569;82;21290;-46
2020/12/06 11:18:18;;;;;;;8.25;4.35;;;;;;;6.65;59.62;102792.05;1739221;82;21286;-46
2020/12/06 11:20:48;;;;;;;10.20;4.80;;;;;;;6.66;59.41;102793.81;1738982;82;21327;-46
2020/12/06 11:23:18;;;;;;;10.25;3.92;;;;;;;6.68;59.08;102784.38;1739455;82;21132;-46
2020/12/06 11:25:46;;;;;;;9.48;4.20;;;;;;;6.68;58.86;102784.38;1738318;82;21133;-46
2020/12/06 11:28:15;;;;;;;12.15;4.72;;;;;;;6.68;58.99;102788.27;1738743;82;21287;-46
2020/12/06 11:30:43;;;;;;;14.83;4.90;;;;;;;6.66;59.34;102783.02;1737039;82;21144;-47
2020/12/06 11:33:11;;;;;;;10.48;4.35;;;;;;;6.66;59.45;102783.02;1729634;82;21275;-46
2020/12/06 11:35:39;;;;;;;12.33;4.28;;;;;;;6.65;59.49;102786.88;1721958;81;21141;-46
2020/12/06 11:38:08;;;;;;;8.53;4.40;;;;;;;6.64;59.66;102788.58;1731844;82;21154;-46
2020/12/06 11:40:36;;;;;;;12.33;4.62;;;;;;;6.66;59.54;102789.94;1723622;82;21558;-46